createdAt,value
2019-02-23T00:00:44.016Z,21.15
2019-02-23T00:03:12.767Z,19.73
2019-02-23T00:05:41.583Z,19.60
2019-02-23T00:08:10.401Z,19.25
2019-02-23T00:10:39.099Z,18.52
2019-02-23T00:13:07.758Z,19.07
2019-02-23T00:15:36.435Z,18.65
2019-02-23T00:18:05.089Z,17.82
2019-02-23T00:20:33.805Z,18.60
2019-02-23T00:23:02.569Z,18.42
2019-02-23T00:25:31.234Z,18.75
2019-02-23T00:27:59.922Z,19.07
2019-02-23T00:30:28.806Z,17.82
2019-02-23T00:32:57.477Z,17.48
2019-02-23T00:35:26.184Z,18.10
2019-02-23T00:37:54.847Z,18.02
2019-02-23T00:40:23.563Z,17.35
2019-02-23T00:42:52.223Z,18.92
2019-02-23T00:45:20.976Z,18.48
2019-02-23T00:47:49.685Z,18.92
2019-02-23T00:50:18.341Z,21.45
2019-02-23T00:52:46.998Z,21.37
2019-02-23T00:55:15.690Z,23.62
2019-02-23T00:57:44.340Z,24.82
2019-02-23T01:00:13.470Z,23.73
2019-02-23T01:02:42.121Z,24.27
2019-02-23T01:05:11.503Z,24.05
2019-02-23T01:07:40.180Z,23.75
2019-02-23T01:10:10.275Z,22.32
2019-02-23T01:12:38.954Z,22.02
2019-02-23T01:15:09.524Z,20.30
2019-02-23T01:17:38.176Z,21.60
2019-02-23T01:20:09.052Z,20.90
2019-02-23T01:22:37.741Z,22.20
2019-02-23T01:25:07.170Z,20.90
2019-02-23T01:27:36.410Z,19.62
2019-02-23T01:30:07.429Z,20.23
2019-02-23T01:32:36.165Z,20.10
2019-02-23T01:35:05.770Z,20.55
2019-02-23T01:37:34.426Z,19.95
2019-02-23T01:40:03.145Z,19.42
2019-02-23T01:42:31.853Z,19.70
2019-02-23T01:45:00.557Z,19.85
2019-02-23T01:47:29.214Z,20.68
2019-02-23T01:49:59.179Z,21.25
2019-02-23T01:52:28.073Z,22.13
2019-02-23T01:54:56.773Z,22.10
2019-02-23T01:57:25.500Z,21.57
2019-02-23T01:59:54.172Z,22.22
2019-02-23T02:02:22.900Z,20.27
2019-02-23T02:04:51.645Z,18.27
2019-02-23T02:07:20.281Z,18.20
2019-02-23T02:09:48.949Z,17.70
2019-02-23T02:12:18.383Z,18.40
2019-02-23T02:14:47.052Z,18.10
2019-02-23T02:17:15.841Z,17.62
2019-02-23T02:19:44.629Z,17.20
2019-02-23T02:22:13.420Z,17.07
2019-02-23T02:24:42.095Z,15.70
2019-02-23T02:27:10.760Z,17.82
2019-02-23T02:29:39.766Z,17.32
2019-02-23T02:32:08.466Z,17.02
2019-02-23T02:34:37.173Z,18.35
2019-02-23T02:37:05.859Z,17.32
2019-02-23T02:39:34.529Z,18.55
2019-02-23T02:42:03.230Z,18.82
2019-02-23T02:44:31.891Z,19.20
2019-02-23T02:47:00.564Z,19.17
2019-02-23T02:49:29.248Z,18.90
2019-02-23T02:51:57.930Z,19.10
2019-02-23T02:54:26.641Z,19.50
2019-02-23T02:56:55.514Z,19.07
2019-02-23T02:59:24.237Z,21.37
2019-02-23T03:01:53.014Z,20.02
2019-02-23T03:04:21.687Z,19.77
2019-02-23T03:06:50.361Z,21.55
2019-02-23T03:09:19.086Z,21.73
2019-02-23T03:11:47.818Z,22.58
2019-02-23T03:14:16.464Z,22.30
2019-02-23T03:16:45.152Z,20.08
2019-02-23T03:19:13.855Z,18.40
2019-02-23T03:21:42.563Z,18.52
2019-02-23T03:24:11.249Z,18.37
2019-02-23T03:26:39.940Z,18.40
2019-02-23T03:29:08.592Z,16.52
2019-02-23T03:31:37.322Z,17.62
2019-02-23T03:34:05.955Z,16.90
2019-02-23T03:36:34.727Z,16.73
2019-02-23T03:39:04.225Z,16.10
2019-02-23T03:41:33.060Z,17.65
2019-02-23T03:44:01.800Z,16.62
2019-02-23T03:46:30.512Z,16.12
2019-02-23T03:48:59.238Z,17.37
2019-02-23T03:51:27.920Z,17.57
2019-02-23T03:53:56.592Z,16.50
2019-02-23T03:56:25.297Z,17.12
2019-02-23T03:58:53.981Z,17.17
2019-02-23T04:01:22.633Z,17.40
2019-02-23T04:03:51.337Z,17.25
2019-02-23T04:06:20.001Z,17.95
2019-02-23T04:08:48.703Z,17.87
2019-02-23T04:11:17.424Z,17.23
2019-02-23T04:13:46.061Z,18.37
2019-02-23T04:16:14.758Z,18.65
2019-02-23T04:18:43.447Z,19.07
2019-02-23T04:21:12.094Z,18.62
2019-02-23T04:23:40.773Z,20.05
2019-02-23T04:26:09.593Z,19.48
2019-02-23T04:28:38.269Z,16.93
2019-02-23T04:31:06.899Z,18.85
2019-02-23T04:33:35.793Z,21.02
2019-02-23T04:36:04.502Z,20.23
2019-02-23T04:38:33.206Z,23.00
2019-02-23T04:41:01.935Z,27.20
2019-02-23T04:43:30.614Z,28.40
2019-02-23T04:45:59.530Z,26.90
2019-02-23T04:48:28.234Z,21.68
2019-02-23T04:50:56.946Z,24.40
2019-02-23T04:53:25.645Z,23.62
2019-02-23T04:55:54.320Z,26.40
2019-02-23T04:58:23.071Z,26.17
2019-02-23T05:00:51.720Z,26.30
2019-02-23T05:03:20.371Z,25.10
2019-02-23T05:05:49.147Z,26.27
2019-02-23T05:08:17.756Z,25.43
2019-02-23T05:10:46.417Z,25.92
2019-02-23T05:13:15.122Z,28.60
2019-02-23T05:15:43.805Z,27.90
2019-02-23T05:18:12.550Z,27.93
2019-02-23T05:20:41.237Z,27.48
2019-02-23T05:23:09.939Z,27.07
2019-02-23T05:25:38.635Z,28.62
2019-02-23T05:28:07.303Z,29.92
2019-02-23T05:30:35.967Z,28.23
2019-02-23T05:33:04.645Z,32.67
2019-02-23T05:35:33.320Z,33.95
2019-02-23T05:38:01.966Z,38.88
2019-02-23T05:40:30.795Z,39.83
2019-02-23T05:43:01.265Z,40.28
2019-02-23T05:45:29.900Z,42.90
2019-02-23T05:47:58.566Z,44.15
2019-02-23T05:50:27.262Z,40.75
2019-02-23T05:52:56.005Z,43.28
2019-02-23T05:55:24.689Z,42.27
2019-02-23T05:57:53.447Z,40.95
2019-02-23T06:00:22.137Z,41.45
2019-02-23T06:02:50.841Z,39.63
2019-02-23T06:05:19.500Z,36.83
2019-02-23T06:07:48.170Z,35.90
2019-02-23T06:10:16.845Z,33.53
2019-02-23T06:12:45.570Z,33.48
2019-02-23T06:15:14.254Z,34.15
2019-02-23T06:17:42.904Z,33.30
2019-02-23T06:20:11.720Z,38.90
2019-02-23T06:22:40.413Z,36.73
2019-02-23T06:25:09.481Z,34.50
2019-02-23T06:27:38.285Z,33.98
2019-02-23T06:30:10.177Z,31.97
2019-02-23T06:32:38.874Z,29.75
2019-02-23T06:35:09.567Z,28.20
2019-02-23T06:37:38.262Z,28.30
2019-02-23T06:40:10.988Z,30.35
2019-02-23T06:42:39.656Z,30.77
2019-02-23T06:45:11.034Z,30.90
2019-02-23T06:47:39.700Z,30.88
2019-02-23T06:50:08.491Z,28.77
2019-02-23T06:52:37.190Z,29.42
2019-02-23T06:55:06.866Z,28.05
2019-02-23T06:57:35.592Z,28.02
2019-02-23T07:00:06.133Z,27.90
2019-02-23T07:02:34.787Z,27.55
2019-02-23T07:05:03.500Z,27.22
2019-02-23T07:07:32.205Z,25.37
2019-02-23T07:10:00.892Z,22.85
2019-02-23T07:12:29.676Z,25.62
2019-02-23T07:14:58.396Z,26.48
2019-02-23T07:17:27.059Z,26.02
2019-02-23T07:19:55.786Z,26.77
2019-02-23T07:22:24.430Z,27.32
2019-02-23T07:24:53.134Z,34.55
2019-02-23T07:27:21.825Z,34.58
2019-02-23T07:29:50.511Z,34.05
2019-02-23T07:32:19.181Z,28.65
2019-02-23T07:34:47.840Z,26.25
2019-02-23T07:37:16.510Z,29.48
2019-02-23T07:39:45.201Z,27.67
2019-02-23T07:42:13.880Z,25.20
2019-02-23T07:44:42.567Z,27.35
2019-02-23T07:47:11.251Z,25.55
2019-02-23T07:49:39.912Z,25.95
2019-02-23T07:52:08.605Z,24.32
2019-02-23T07:54:37.286Z,22.58
2019-02-23T07:57:05.969Z,22.95
2019-02-23T07:59:34.647Z,21.93
2019-02-23T08:02:03.337Z,22.60
2019-02-23T08:04:32.062Z,20.97
2019-02-23T08:07:00.767Z,22.62
2019-02-23T08:09:29.413Z,20.85
2019-02-23T08:11:58.154Z,19.45
2019-02-23T08:14:26.841Z,23.00
2019-02-23T08:16:55.525Z,18.65
2019-02-23T08:19:24.174Z,13.55
2019-02-23T08:21:52.919Z,15.65
2019-02-23T08:24:21.637Z,16.57
2019-02-23T08:26:50.307Z,12.75
2019-02-23T08:29:19.006Z,14.95
2019-02-23T08:31:47.705Z,16.60
2019-02-23T08:34:16.378Z,15.15
2019-02-23T08:36:45.132Z,14.15
2019-02-23T08:39:14.170Z,12.98
2019-02-23T08:41:43.346Z,13.38
2019-02-23T08:44:12.077Z,11.97
2019-02-23T08:46:40.774Z,13.18
2019-02-23T08:49:09.431Z,12.68
2019-02-23T08:51:38.147Z,15.05
2019-02-23T08:54:06.965Z,13.83
2019-02-23T08:56:35.738Z,14.00
2019-02-23T08:59:04.641Z,13.93
2019-02-23T09:01:33.434Z,11.78
2019-02-23T09:04:02.117Z,12.95
2019-02-23T09:06:30.818Z,13.78
2019-02-23T09:08:59.599Z,15.18
2019-02-23T09:11:28.481Z,17.07
2019-02-23T09:13:57.405Z,17.55
2019-02-23T09:16:26.147Z,16.70
2019-02-23T09:18:54.991Z,15.03
2019-02-23T09:21:23.948Z,13.20
2019-02-23T09:23:52.682Z,12.20
2019-02-23T09:26:21.811Z,11.95
2019-02-23T09:28:50.460Z,12.30
2019-02-23T09:31:19.157Z,12.93
2019-02-23T09:33:47.855Z,14.05
2019-02-23T09:36:16.618Z,14.18
2019-02-23T09:38:45.467Z,14.87
2019-02-23T09:41:14.213Z,14.68
2019-02-23T09:43:42.910Z,16.65
2019-02-23T09:46:11.628Z,15.98
2019-02-23T09:48:40.361Z,14.40
2019-02-23T09:51:09.096Z,16.00
2019-02-23T09:53:37.995Z,15.75
2019-02-23T09:56:06.774Z,13.45
2019-02-23T09:58:35.557Z,13.88
2019-02-23T10:01:04.260Z,15.53
2019-02-23T10:03:33.148Z,16.73
2019-02-23T10:06:02.042Z,14.98
2019-02-23T10:08:30.811Z,15.20
2019-02-23T10:10:59.515Z,15.23
2019-02-23T10:13:28.285Z,14.28
2019-02-23T10:15:56.988Z,12.68
2019-02-23T10:18:25.676Z,13.35
2019-02-23T10:20:54.468Z,12.47
2019-02-23T10:23:23.253Z,12.05
2019-02-23T10:25:52.039Z,11.03
2019-02-23T10:28:20.926Z,10.35
2019-02-23T10:30:49.707Z,11.78
2019-02-23T10:33:18.493Z,12.15
2019-02-23T10:35:47.202Z,13.35
2019-02-23T10:38:15.984Z,11.28
2019-02-23T10:40:44.672Z,11.70
2019-02-23T10:43:13.438Z,13.62
2019-02-23T10:45:42.249Z,14.35
2019-02-23T10:48:11.037Z,14.47
2019-02-23T10:50:39.929Z,12.73
2019-02-23T10:53:08.614Z,13.30
2019-02-23T10:55:37.447Z,11.70
2019-02-23T10:58:06.338Z,13.80
2019-02-23T11:00:35.125Z,11.83
2019-02-23T11:03:03.810Z,12.28
2019-02-23T11:05:32.577Z,10.15
2019-02-23T11:08:01.654Z,11.35
2019-02-23T11:10:30.443Z,9.88
2019-02-23T11:12:59.203Z,10.30
2019-02-23T11:15:28.329Z,10.20
2019-02-23T11:17:57.138Z,9.20
2019-02-23T11:20:26.393Z,10.78
2019-02-23T11:22:55.143Z,9.95
2019-02-23T11:25:23.826Z,12.50
2019-02-23T11:27:52.498Z,11.55
2019-02-23T11:30:21.262Z,10.75
2019-02-23T11:32:49.954Z,10.82
2019-02-23T11:35:18.671Z,10.38
2019-02-23T11:37:47.437Z,11.05
2019-02-23T11:40:16.852Z,10.45
2019-02-23T11:42:47.180Z,11.45
2019-02-23T11:45:15.917Z,11.57
2019-02-23T11:47:44.718Z,11.63
2019-02-23T11:50:13.787Z,9.78
2019-02-23T11:52:42.545Z,10.45
2019-02-23T11:55:11.302Z,9.70
2019-02-23T11:57:40.026Z,8.58
2019-02-23T12:00:11.131Z,9.28
2019-02-23T12:02:40.130Z,8.05
2019-02-23T12:05:09.861Z,9.88
2019-02-23T12:07:38.617Z,10.15
2019-02-23T12:10:12.831Z,10.25
2019-02-23T12:12:41.478Z,8.80
2019-02-23T12:15:10.377Z,9.40
2019-02-23T12:17:39.097Z,8.75
2019-02-23T12:20:09.521Z,10.23
2019-02-23T12:22:38.225Z,9.75
2019-02-23T12:25:07.672Z,10.15
2019-02-23T12:27:36.437Z,10.15
2019-02-23T12:30:07.458Z,11.43
2019-02-23T12:32:36.152Z,10.15
2019-02-23T12:35:05.902Z,14.18
2019-02-23T12:37:34.593Z,14.20
2019-02-23T12:40:03.270Z,11.80
2019-02-23T12:42:31.916Z,10.18
2019-02-23T12:45:00.622Z,10.10
2019-02-23T12:47:29.265Z,9.68
2019-02-23T12:49:57.936Z,9.13
2019-02-23T12:52:26.686Z,9.85
2019-02-23T12:54:55.317Z,9.15
2019-02-23T12:57:24.037Z,8.40
2019-02-23T12:59:52.710Z,8.45
2019-02-23T13:02:21.394Z,8.85
2019-02-23T13:04:50.043Z,8.70
2019-02-23T13:07:18.762Z,8.73
2019-02-23T13:09:47.478Z,9.18
2019-02-23T13:12:21.982Z,8.45
2019-02-23T13:14:56.457Z,8.38
2019-02-23T13:17:49.755Z,8.65
2019-02-23T13:20:39.920Z,8.63
2019-02-23T13:23:17.510Z,9.08
2019-02-23T13:25:55.207Z,9.33
2019-02-23T13:28:35.848Z,8.90
2019-02-23T13:31:25.529Z,8.38
2019-02-23T13:34:13.890Z,8.28
2019-02-23T13:37:09.556Z,9.10
2019-02-23T13:39:57.833Z,9.50
2019-02-23T13:42:48.980Z,9.70
2019-02-23T13:45:37.517Z,8.65
2019-02-23T13:48:32.217Z,8.83
2019-02-23T13:51:19.021Z,9.28
2019-02-23T13:54:11.902Z,8.48
2019-02-23T13:56:49.474Z,8.18
2019-02-23T13:59:50.230Z,8.33
2019-02-23T14:02:36.825Z,7.55
2019-02-23T14:05:17.265Z,7.45
2019-02-23T14:08:17.599Z,7.58
2019-02-23T14:11:10.473Z,7.70
2019-02-23T14:13:50.901Z,7.58
2019-02-23T14:16:40.507Z,8.00
2019-02-23T14:19:30.191Z,7.42
2019-02-23T14:22:26.258Z,7.72
2019-02-23T14:25:20.380Z,9.08
2019-02-23T14:28:13.010Z,8.98
2019-02-23T14:30:53.521Z,8.70
2019-02-23T14:33:46.204Z,9.93
2019-02-23T14:36:29.330Z,9.60
2019-02-23T14:39:17.539Z,9.75
2019-02-23T14:42:10.581Z,10.00
2019-02-23T14:44:45.189Z,11.50
2019-02-23T14:47:28.869Z,9.90
2019-02-23T14:50:15.809Z,9.93
2019-02-23T14:52:53.572Z,9.75
2019-02-23T14:55:40.504Z,10.25
2019-02-23T14:58:17.559Z,12.18
2019-02-23T15:01:07.778Z,10.90
2019-02-23T15:04:04.631Z,11.90
2019-02-23T15:06:53.724Z,11.45
2019-02-23T15:09:46.823Z,11.63
2019-02-23T15:12:24.898Z,10.25
2019-02-23T15:15:02.674Z,9.93
2019-02-23T15:17:49.706Z,9.95
2019-02-23T15:20:41.350Z,10.82
2019-02-23T15:23:53.710Z,11.90
2019-02-23T15:26:57.027Z,11.40
2019-02-23T15:29:31.703Z,12.20
2019-02-23T15:32:20.314Z,12.58
2019-02-23T15:35:00.714Z,12.43
2019-02-23T15:37:38.142Z,13.03
2019-02-23T15:40:24.878Z,15.03
2019-02-23T15:43:08.560Z,14.23
2019-02-23T15:45:46.344Z,15.10
2019-02-23T15:48:32.949Z,13.90
2019-02-23T15:51:01.715Z,14.13
2019-02-23T15:53:30.349Z,11.63
2019-02-23T15:55:59.073Z,11.90
2019-02-23T15:58:27.742Z,11.30
2019-02-23T16:00:56.685Z,12.45
2019-02-23T16:03:25.382Z,11.05
2019-02-23T16:05:54.058Z,11.12
2019-02-23T16:08:22.759Z,11.53
2019-02-23T16:10:51.429Z,13.18
2019-02-23T16:13:20.145Z,12.85
2019-02-23T16:15:48.820Z,13.43
2019-02-23T16:18:17.508Z,13.62
2019-02-23T16:20:46.254Z,14.23
2019-02-23T16:23:14.901Z,14.75
2019-02-23T16:25:43.561Z,17.23
2019-02-23T16:28:12.299Z,17.52
2019-02-23T16:30:40.941Z,19.20
2019-02-23T16:33:09.698Z,18.85
2019-02-23T16:35:38.399Z,16.17
2019-02-23T16:38:07.060Z,17.10
2019-02-23T16:40:35.806Z,15.43
2019-02-23T16:43:04.500Z,15.80
2019-02-23T16:45:33.196Z,16.27
2019-02-23T16:48:01.850Z,16.40
2019-02-23T16:50:30.526Z,18.82
2019-02-23T16:52:59.218Z,21.95
2019-02-23T16:55:27.879Z,20.43
2019-02-23T16:57:56.555Z,21.48
2019-02-23T17:00:25.225Z,20.75
2019-02-23T17:02:53.921Z,20.48
2019-02-23T17:05:22.562Z,19.67
2019-02-23T17:07:51.237Z,18.62
2019-02-23T17:10:19.885Z,15.50
2019-02-23T17:12:48.549Z,17.07
2019-02-23T17:15:17.198Z,16.05
2019-02-23T17:17:45.864Z,16.20
2019-02-23T17:20:14.565Z,15.63
2019-02-23T17:22:43.246Z,16.57
2019-02-23T17:25:11.893Z,15.35
2019-02-23T17:27:40.581Z,16.15
2019-02-23T17:30:09.371Z,16.95
2019-02-23T17:32:38.083Z,17.42
2019-02-23T17:35:07.066Z,17.15
2019-02-23T17:37:35.757Z,21.30
2019-02-23T17:40:05.734Z,22.22
2019-02-23T17:42:34.400Z,26.27
2019-02-23T17:45:03.045Z,31.80
2019-02-23T17:47:31.742Z,33.83
2019-02-23T17:50:00.389Z,39.38
2019-02-23T17:52:29.066Z,55.38
2019-02-23T17:54:57.745Z,53.10
2019-02-23T17:57:26.403Z,64.07
2019-02-23T17:59:55.071Z,72.30
2019-02-23T18:02:23.707Z,73.42
2019-02-23T18:04:52.404Z,71.82
2019-02-23T18:07:21.127Z,60.17
2019-02-23T18:09:49.881Z,58.65
2019-02-23T18:12:18.630Z,67.87
2019-02-23T18:14:47.340Z,67.62
2019-02-23T18:17:15.999Z,59.53
2019-02-23T18:19:44.723Z,56.95
2019-02-23T18:22:13.408Z,50.63
2019-02-23T18:24:42.046Z,49.23
2019-02-23T18:27:10.733Z,50.85
2019-02-23T18:29:39.426Z,58.73
2019-02-23T18:32:08.084Z,52.67
2019-02-23T18:34:36.805Z,47.85
2019-02-23T18:37:05.519Z,53.80
2019-02-23T18:39:37.381Z,74.80
2019-02-23T18:42:06.089Z,64.12
2019-02-23T18:44:34.805Z,46.53
2019-02-23T18:47:03.458Z,48.35
2019-02-23T18:49:32.172Z,48.60
2019-02-23T18:52:00.917Z,49.03
2019-02-23T18:54:29.649Z,56.13
2019-02-23T18:56:58.300Z,57.30
2019-02-23T18:59:26.983Z,48.20
2019-02-23T19:01:55.683Z,43.60
2019-02-23T19:04:24.373Z,43.63
2019-02-23T19:06:53.062Z,44.80
2019-02-23T19:09:21.776Z,46.42
2019-02-23T19:11:50.491Z,48.15
2019-02-23T19:14:19.406Z,47.27
2019-02-23T19:16:49.519Z,49.50
2019-02-23T19:19:18.898Z,58.13
2019-02-23T19:21:47.545Z,59.95
2019-02-23T19:24:16.228Z,53.60
2019-02-23T19:26:44.909Z,51.88
2019-02-23T19:29:13.596Z,44.40
2019-02-23T19:31:42.268Z,45.67
2019-02-23T19:34:10.944Z,41.68
2019-02-23T19:36:39.608Z,43.73
2019-02-23T19:39:08.342Z,43.42
2019-02-23T19:41:37.011Z,43.90
2019-02-23T19:44:06.041Z,43.23
2019-02-23T19:46:35.787Z,42.15
2019-02-23T19:49:04.461Z,41.08
2019-02-23T19:51:33.224Z,40.80
2019-02-23T19:54:01.864Z,42.03
2019-02-23T19:56:30.501Z,40.52
2019-02-23T19:58:59.174Z,41.58
2019-02-23T20:01:27.853Z,40.48
2019-02-23T20:03:56.550Z,38.78
2019-02-23T20:06:25.198Z,36.35
2019-02-23T20:08:53.906Z,34.45
2019-02-23T20:11:22.577Z,36.80
2019-02-23T20:13:51.329Z,38.40
2019-02-23T20:16:19.985Z,40.40
2019-02-23T20:18:48.694Z,41.23
2019-02-23T20:21:17.381Z,42.30
2019-02-23T20:23:47.930Z,45.55
2019-02-23T20:26:16.527Z,46.98
2019-02-23T20:28:45.427Z,47.13
2019-02-23T20:31:14.268Z,46.13
2019-02-23T20:33:42.945Z,48.42
2019-02-23T20:36:11.654Z,49.15
2019-02-23T20:38:40.325Z,51.88
2019-02-23T20:41:09.018Z,53.60
2019-02-23T20:43:37.752Z,53.05
2019-02-23T20:46:06.569Z,53.28
2019-02-23T20:48:35.326Z,51.00
2019-02-23T20:51:03.989Z,49.83
2019-02-23T20:53:32.675Z,51.50
2019-02-23T20:56:01.344Z,47.38
2019-02-23T20:58:30.037Z,42.40
2019-02-23T21:00:58.721Z,36.15
2019-02-23T21:03:27.392Z,35.50
2019-02-23T21:05:56.143Z,39.58
2019-02-23T21:08:24.916Z,39.75
2019-02-23T21:10:53.701Z,38.13
2019-02-23T21:13:22.417Z,37.40
2019-02-23T21:15:51.169Z,39.10
2019-02-23T21:18:19.989Z,39.45
2019-02-23T21:20:48.682Z,39.00
2019-02-23T21:23:17.374Z,39.05
2019-02-23T21:25:46.056Z,33.80
2019-02-23T21:28:14.709Z,32.65
2019-02-23T21:30:43.387Z,33.40
2019-02-23T21:33:12.040Z,31.75
2019-02-23T21:35:40.746Z,33.02
2019-02-23T21:38:09.438Z,33.40
2019-02-23T21:40:38.105Z,30.77
2019-02-23T21:43:06.796Z,31.77
2019-02-23T21:45:35.465Z,32.08
2019-02-23T21:48:04.125Z,32.45
2019-02-23T21:50:32.816Z,32.00
2019-02-23T21:53:01.494Z,30.50
2019-02-23T21:55:30.160Z,31.30
2019-02-23T21:58:12.277Z,30.88
2019-02-23T22:00:40.942Z,29.80
2019-02-23T22:03:09.627Z,32.93
2019-02-23T22:05:38.334Z,33.02
2019-02-23T22:08:07.006Z,30.95
2019-02-23T22:10:35.661Z,31.62
2019-02-23T22:13:04.392Z,31.20
2019-02-23T22:15:33.113Z,30.60
2019-02-23T22:18:01.771Z,30.82
2019-02-23T22:20:30.673Z,35.03
2019-02-23T22:22:59.380Z,37.10
2019-02-23T22:25:28.032Z,41.02
2019-02-23T22:27:56.789Z,43.78
2019-02-23T22:30:25.425Z,46.50
2019-02-23T22:32:54.101Z,49.55
2019-02-23T22:35:22.885Z,49.63
2019-02-23T22:37:51.679Z,53.50
2019-02-23T22:40:20.508Z,60.98
2019-02-23T22:42:49.336Z,62.17
2019-02-23T22:45:20.579Z,68.95
2019-02-23T22:47:49.352Z,71.50
2019-02-23T22:50:18.411Z,67.70
2019-02-23T22:52:47.106Z,69.05
2019-02-23T22:55:15.765Z,69.03
2019-02-23T22:57:44.777Z,64.22
2019-02-23T23:00:15.792Z,56.13
2019-02-23T23:02:44.632Z,52.90
2019-02-23T23:05:13.349Z,55.23
2019-02-23T23:07:42.021Z,56.05
2019-02-23T23:10:10.706Z,56.58
2019-02-23T23:12:39.429Z,57.93
2019-02-23T23:15:08.580Z,60.60
2019-02-23T23:17:37.274Z,64.67
2019-02-23T23:20:08.090Z,63.00
2019-02-23T23:22:37.085Z,61.88
2019-02-23T23:25:07.421Z,58.63
2019-02-23T23:27:36.319Z,59.03
2019-02-23T23:30:07.296Z,54.93
2019-02-23T23:32:36.039Z,51.50
2019-02-23T23:35:05.357Z,53.87
2019-02-23T23:37:34.429Z,52.83
2019-02-23T23:40:03.316Z,52.88
2019-02-23T23:42:31.998Z,50.28
2019-02-23T23:45:00.783Z,50.88
2019-02-23T23:47:29.543Z,50.28
2019-02-23T23:49:58.176Z,49.50
2019-02-23T23:52:26.873Z,49.98
2019-02-23T23:54:55.570Z,51.40
2019-02-23T23:57:24.224Z,52.13
2019-02-23T23:59:52.930Z,49.25
